Time;durP1;ratioP1;P1;durP2;ratioP2;P2;SDS_P1;SDS_P2;PMS_P1;PMS_P2;Temp;Humidity;BMP_temperature;BMP_pressure;BME280_temperature;BME280_humidity;BME280_pressure;Samples;Min_cycle;Max_cycle;Signal;HPM_P1;HPM_P2
2021/04/12 00:00:16;;;;;;;17.00;7.97;;;;;;;9.82;61.33;100228.47;1706573;84;21861;-77
2021/04/12 00:02:47;;;;;;;15.83;7.42;;;;;;;9.77;61.40;100222.84;1706592;84;21165;-77
2021/04/12 00:05:55;;;;;;;14.90;7.78;;;;;;;9.76;61.46;100226.50;1684782;84;21086;-77
2021/04/12 00:08:41;;;;;;;13.90;7.42;;;;;;;9.74;61.52;100229.34;1706734;84;21144;-77
2021/04/12 00:11:19;;;;;;;14.78;6.92;;;;;;;9.73;61.57;100234.33;1706837;84;21180;-77
2021/04/12 00:13:51;;;;;;;18.42;7.60;;;;;;;9.71;61.63;100238.17;1707024;83;22133;-77
2021/04/12 00:16:46;;;;;;;17.85;8.30;;;;;;;9.71;61.68;100236.84;1706852;83;21133;-77
2021/04/12 00:19:34;;;;;;;13.03;7.12;;;;;;;9.70;61.73;100237.83;1677698;84;21175;-77
2021/04/12 00:22:31;;;;;;;12.15;6.25;;;;;;;9.71;61.79;100242.16;1697353;84;21148;-77
2021/04/12 00:25:13;;;;;;;17.65;6.97;;;;;;;9.70;61.84;100236.50;1726683;82;21164;-77
2021/04/12 00:28:04;;;;;;;13.10;6.60;;;;;;;9.70;61.94;100237.83;1728560;81;21284;-77
2021/04/12 00:30:54;;;;;;;14.55;6.75;;;;;;;9.66;62.02;100228.51;1753112;81;21133;-78
2021/04/12 00:33:27;;;;;;;17.12;7.15;;;;;;;9.65;62.09;100231.67;1725977;82;21113;-78
2021/04/12 00:36:26;;;;;;;16.95;6.95;;;;;;;9.62;62.19;100235.16;1726759;83;21214;-78
2021/04/12 00:39:22;;;;;;;13.78;7.15;;;;;;;9.56;62.27;100238.50;1747685;82;21158;-78
2021/04/12 00:42:21;;;;;;;14.30;7.42;;;;;;;9.53;62.34;100229.83;1747682;82;22106;-78
2021/04/12 00:45:30;;;;;;;11.45;6.50;;;;;;;9.48;62.41;100226.86;1739130;81;21138;-78
2021/04/12 00:48:21;;;;;;;13.70;7.10;;;;;;;9.43;62.47;100232.33;1704705;82;21134;-77
2021/04/12 00:51:11;;;;;;;16.12;7.37;;;;;;;9.38;62.52;100228.86;1719435;82;21181;-77
2021/04/12 00:53:46;;;;;;;18.25;7.80;;;;;;;9.32;62.57;100240.16;1696296;84;21138;-77
2021/04/12 00:56:32;;;;;;;16.97;7.65;;;;;;;9.26;62.63;100249.30;1723130;81;21137;-77
2021/04/12 00:59:22;;;;;;;14.45;7.50;;;;;;;9.17;62.69;100252.46;1740999;82;21178;-77
2021/04/12 01:02:10;;;;;;;16.07;6.95;;;;;;;9.08;62.75;100253.43;1784509;80;27403;-76
2021/04/12 01:05:05;;;;;;;18.87;7.75;;;;;;;9.02;62.84;100256.75;1784829;80;21152;-77
2021/04/12 01:08:00;;;;;;;31.05;15.30;;;;;;;8.99;62.90;100262.41;1764341;80;21103;-77
2021/04/12 01:11:13;;;;;;;16.00;7.97;;;;;;;8.94;62.99;100271.36;1753337;81;21240;-77
2021/04/12 01:14:11;;;;;;;12.40;7.95;;;;;;;8.89;63.07;100283.83;1647250;85;21153;-77
2021/04/12 01:17:09;;;;;;;14.40;6.87;;;;;;;8.82;63.17;100289.95;1651012;85;21658;-76
2021/04/12 01:20:31;;;;;;;11.50;6.55;;;;;;;8.81;63.26;100290.94;1671867;85;21664;-77
2021/04/12 01:23:35;;;;;;;13.20;7.12;;;;;;;8.79;63.39;100295.59;1667798;86;21198;-77
2021/04/12 01:26:43;;;;;;;13.38;6.42;;;;;;;8.79;63.54;100308.89;1669153;86;21204;-77
2021/04/12 01:29:37;;;;;;;13.40;6.67;;;;;;;8.78;63.66;100309.38;1669012;85;21163;-77
2021/04/12 01:32:31;;;;;;;17.55;6.55;;;;;;;8.79;63.75;100318.20;1668941;84;21170;-77
2021/04/12 01:35:39;;;;;;;13.65;6.42;;;;;;;8.77;63.81;100318.84;1668352;84;21198;-76
2021/04/12 01:38:27;;;;;;;13.05;8.13;;;;;;;8.74;63.88;100317.34;1669268;85;21700;-76
2021/04/12 01:41:34;;;;;;;13.98;7.75;;;;;;;8.75;63.99;100334.97;1668896;84;21252;-77
2021/04/12 01:44:31;;;;;;;16.85;8.73;;;;;;;8.80;64.06;100339.29;1668538;86;21177;-77
2021/04/12 01:47:13;;;;;;;19.50;10.20;;;;;;;8.82;64.13;100341.80;1666223;85;21209;-77
2021/04/12 01:50:17;;;;;;;31.77;19.62;;;;;;;8.79;64.22;100353.59;1606888;86;21159;-77
2021/04/12 01:53:10;;;;;;;32.08;20.20;;;;;;;8.82;64.44;100361.75;1652440;85;21199;-75
2021/04/12 01:56:28;;;;;;;25.80;18.27;;;;;;;8.95;64.70;100372.77;1806585;77;22728;-74
2021/04/12 01:59:46;;;;;;;18.20;11.45;;;;;;;8.94;64.86;100387.05;1757125;81;21055;-74
2021/04/12 02:02:41;;;;;;;19.17;12.43;;;;;;;8.96;65.08;100390.39;1759242;80;21415;-77
2021/04/12 02:05:38;;;;;;;28.83;14.15;;;;;;;8.95;65.29;100396.70;1756883;80;21150;-77
2021/04/12 02:08:26;;;;;;;28.90;13.53;;;;;;;8.92;65.43;100399.69;1756991;81;21580;-77
2021/04/12 02:11:10;;;;;;;28.60;15.88;;;;;;;8.89;65.62;100405.33;1757147;81;21124;-76
2021/04/12 02:14:14;;;;;;;30.90;14.15;;;;;;;8.89;65.79;100403.99;1756890;81;21182;-77
2021/04/12 02:16:58;;;;;;;25.70;13.53;;;;;;;8.89;66.06;100405.33;1756375;81;21178;-77
2021/04/12 02:19:56;;;;;;;32.55;14.98;;;;;;;8.88;66.39;100408.47;1755487;81;21206;-77
2021/04/12 02:23:01;;;;;;;24.50;14.13;;;;;;;8.89;66.63;100411.48;1771260;80;21557;-76
2021/04/12 02:26:09;;;;;;;27.30;15.40;;;;;;;8.93;66.98;100408.01;1768987;81;21192;-76
2021/04/12 02:29:14;;;;;;;28.73;16.52;;;;;;;8.93;67.39;100411.50;1788257;80;21635;-76
2021/04/12 02:32:04;;;;;;;37.08;17.98;;;;;;;8.95;67.82;100411.33;1788299;80;21230;-77
2021/04/12 02:34:47;;;;;;;39.48;17.80;;;;;;;8.96;68.19;100419.66;1788123;79;21175;-77
2021/04/12 02:37:36;;;;;;;59.27;23.10;;;;;;;8.96;68.51;100416.50;1788301;80;21136;-77
2021/04/12 02:40:36;;;;;;;40.15;17.57;;;;;;;8.97;68.79;100417.34;1786988;79;21131;-77
2021/04/12 02:43:26;;;;;;;28.50;15.80;;;;;;;8.97;69.09;100419.47;1788249;80;21103;-77
2021/04/12 02:46:14;;;;;;;;;;;;;;;8.96;69.50;100413.00;1790082;80;21279;-77
2021/04/12 02:49:07;;;;;;;35.20;18.42;;;;;;;8.91;69.79;100419.28;1788170;80;20555;-77
2021/04/12 02:52:10;;;;;;;36.25;18.27;;;;;;;8.84;70.06;100420.91;1757904;80;21096;-77
2021/04/12 02:55:17;;;;;;;31.75;17.67;;;;;;;8.78;70.36;100425.05;1757073;81;21107;-77
2021/04/12 02:58:17;;;;;;;37.60;17.62;;;;;;;8.75;70.57;100430.68;1756723;81;21130;-77
2021/04/12 03:01:38;;;;;;;41.92;19.48;;;;;;;8.72;70.81;100430.16;1768425;80;22175;-77
2021/04/12 03:04:28;;;;;;;37.20;20.05;;;;;;;8.70;71.00;100427.64;1788041;80;21540;-77
2021/04/12 03:07:32;;;;;;;34.50;18.05;;;;;;;8.72;71.22;100432.82;1776705;80;21159;-77
2021/04/12 03:10:33;;;;;;;28.77;17.65;;;;;;;8.73;71.40;100437.13;1786872;80;21567;-77
2021/04/12 03:13:34;;;;;;;30.08;17.98;;;;;;;8.72;71.60;100438.97;1787683;80;21108;-77
2021/04/12 03:16:36;;;;;;;30.62;17.40;;;;;;;8.71;71.77;100442.61;1786845;80;22061;-77
2021/04/12 03:19:28;;;;;;;24.07;16.48;;;;;;;8.69;71.91;100445.10;1784171;80;21206;-77
2021/04/12 03:22:20;;;;;;;32.55;18.23;;;;;;;8.65;72.07;100455.70;1787444;80;21143;-77
2021/04/12 03:25:12;;;;;;;35.70;19.95;;;;;;;8.61;72.15;100463.65;1757135;80;21108;-77
2021/04/12 03:28:23;;;;;;;35.10;18.02;;;;;;;8.56;72.28;100468.58;1787403;80;21123;-77
2021/04/12 03:31:04;;;;;;;27.95;16.62;;;;;;;8.52;72.38;100478.69;1787580;80;21177;-77
2021/04/12 03:34:10;;;;;;;27.57;16.13;;;;;;;8.48;72.49;100484.80;1787584;80;21096;-76
2021/04/12 03:36:42;;;;;;;29.70;16.17;;;;;;;8.45;72.60;100487.78;1757688;80;21127;-76
2021/04/12 03:39:20;;;;;;;25.23;16.48;;;;;;;8.43;72.68;100488.44;1745083;81;21127;-76
2021/04/12 03:42:30;;;;;;;28.12;17.70;;;;;;;8.45;72.76;100497.56;1756490;81;21111;-77
2021/04/12 03:45:20;;;;;;;24.27;15.90;;;;;;;8.45;72.84;100501.06;1756208;81;25814;-77
2021/04/12 03:48:04;;;;;;;23.83;16.07;;;;;;;8.40;72.93;100503.37;1756410;81;21577;-77
2021/04/12 03:51:27;;;;;;;28.95;17.50;;;;;;;8.36;73.01;100504.66;1756437;81;21132;-77
2021/04/12 03:54:43;;;;;;;26.23;16.20;;;;;;;8.28;73.09;100507.23;1760440;80;21628;-76
2021/04/12 03:57:50;;;;;;;23.70;15.35;;;;;;;8.19;73.16;100513.44;1787313;80;21136;-77
2021/04/12 04:00:45;;;;;;;24.60;15.10;;;;;;;8.16;73.24;100515.08;1787484;80;21615;-77
2021/04/12 04:03:43;;;;;;;21.12;14.73;;;;;;;8.12;73.29;100504.41;1787471;80;21662;-77
2021/04/12 04:06:27;;;;;;;27.90;15.25;;;;;;;8.11;73.34;100506.71;1787322;80;21560;-77
2021/04/12 04:09:11;;;;;;;22.25;15.28;;;;;;;8.09;73.38;100508.70;1786278;80;21144;-77
2021/04/12 04:12:13;;;;;;;24.40;14.85;;;;;;;8.08;73.43;100508.34;1787453;80;21135;-77
2021/04/12 04:15:24;;;;;;;22.30;15.18;;;;;;;8.04;73.48;100517.59;1787288;80;21192;-76
2021/04/12 04:18:21;;;;;;;22.80;15.93;;;;;;;8.00;73.55;100517.55;1787415;80;21127;-76
2021/04/12 04:21:02;;;;;;;36.23;19.35;;;;;;;7.98;73.60;100515.55;1787584;80;21175;-76
2021/04/12 04:24:00;;;;;;;24.47;14.95;;;;;;;7.93;73.65;100518.65;1759822;80;21135;-77
2021/04/12 04:26:58;;;;;;;19.20;11.37;;;;;;;7.88;73.70;100524.89;1756570;81;21111;-77
2021/04/12 04:29:45;;;;;;;20.62;11.43;;;;;;;7.82;73.78;100536.59;1756457;81;21183;-77
2021/04/12 04:32:44;;;;;;;17.90;10.98;;;;;;;7.73;73.89;100543.66;1753724;81;21199;-77
2021/04/12 04:35:40;;;;;;;13.88;9.38;;;;;;;7.69;73.95;100538.78;1756624;81;21092;-77
2021/04/12 04:38:40;;;;;;;21.00;12.55;;;;;;;7.60;74.07;100550.30;1755383;81;21545;-76
2021/04/12 04:41:52;;;;;;;20.85;12.50;;;;;;;7.51;74.19;100548.86;1756250;81;21151;-76
2021/04/12 04:45:00;;;;;;;20.00;13.00;;;;;;;7.45;74.28;100557.89;1756266;81;22049;-76
2021/04/12 04:47:57;;;;;;;22.45;13.30;;;;;;;7.41;74.36;100551.20;1756359;81;21143;-76
2021/04/12 04:50:59;;;;;;;19.35;11.78;;;;;;;7.39;74.41;100553.15;1772420;80;21128;-76
2021/04/12 04:53:51;;;;;;;22.13;11.78;;;;;;;7.37;74.47;100550.66;1787320;80;21174;-76
2021/04/12 04:56:59;;;;;;;27.98;14.10;;;;;;;7.34;74.56;100558.07;1789980;80;21143;-76
2021/04/12 04:59:52;;;;;;;31.12;14.55;;;;;;;7.30;74.60;100570.79;1776755;80;21211;-76
2021/04/12 05:02:56;;;;;;;23.87;13.22;;;;;;;7.25;74.66;100580.98;1723300;83;21512;-76
2021/04/12 05:05:51;;;;;;;23.32;12.98;;;;;;;7.22;74.72;100583.93;1728632;82;21136;-76
2021/04/12 05:09:13;;;;;;;17.60;11.60;;;;;;;7.21;74.75;100590.23;1737068;82;21163;-76
2021/04/12 05:11:57;;;;;;;17.52;11.40;;;;;;;7.20;74.78;100593.86;1737277;82;21132;-76
2021/04/12 05:14:54;;;;;;;18.12;11.08;;;;;;;7.13;74.82;100602.04;1737233;82;21156;-76
2021/04/12 05:17:35;;;;;;;20.62;11.28;;;;;;;7.06;74.88;100615.52;1735304;82;21143;-76
2021/04/12 05:20:41;;;;;;;17.65;11.15;;;;;;;7.02;74.90;100622.08;1737403;82;21704;-76
2021/04/12 05:23:22;;;;;;;17.30;9.18;;;;;;;7.02;74.93;100631.36;1732892;81;21151;-76
2021/04/12 05:26:39;;;;;;;17.65;8.95;;;;;;;6.96;74.97;100630.13;1737387;82;21160;-77
2021/04/12 05:29:51;;;;;;;19.92;10.95;;;;;;;6.95;74.98;100639.53;1755657;81;21289;-77
2021/04/12 05:32:31;;;;;;;15.00;7.47;;;;;;;6.91;75.00;100648.73;1729775;83;21180;-76
2021/04/12 05:35:01;;;;;;;;;;;;;;;6.84;75.00;100651.11;1732469;83;21547;-76
2021/04/12 05:38:03;;;;;;;;;;;;;;;6.80;75.00;100658.15;1732173;82;20249;-76
2021/04/12 05:41:02;;;;;;;18.37;9.88;;;;;;;6.71;75.01;100665.62;1729718;83;20273;-76
2021/04/12 05:44:02;;;;;;;15.72;8.38;;;;;;;6.64;75.01;100674.62;1729837;82;22196;-76
2021/04/12 05:47:06;;;;;;;12.98;8.10;;;;;;;6.59;75.02;100673.34;1725084;83;21159;-76
2021/04/12 05:50:04;;;;;;;18.15;9.78;;;;;;;6.56;75.03;100674.46;1718290;83;21159;-76
2021/04/12 05:52:51;;;;;;;16.45;10.80;;;;;;;6.53;75.06;100674.25;1727958;81;21149;-76
2021/04/12 05:55:34;;;;;;;21.80;9.78;;;;;;;6.49;75.08;100683.45;1737889;82;21439;-76
2021/04/12 05:58:41;;;;;;;15.28;9.35;;;;;;;6.47;75.14;100686.70;1740491;82;21253;-76
2021/04/12 06:01:34;;;;;;;16.87;10.78;;;;;;;6.42;75.17;100692.07;1723363;82;21640;-76
2021/04/12 06:04:32;;;;;;;24.15;12.23;;;;;;;6.40;75.20;100701.47;1740477;82;21124;-76
2021/04/12 06:07:16;;;;;;;19.48;9.08;;;;;;;6.39;75.18;100706.44;1740553;82;21160;-77
2021/04/12 06:10:22;;;;;;;14.25;8.48;;;;;;;6.39;75.19;100703.78;1711448;81;21136;-77
2021/04/12 06:13:19;;;;;;;14.87;8.65;;;;;;;6.34;75.24;100721.87;1711171;82;21269;-77
2021/04/12 06:16:10;;;;;;;15.95;10.25;;;;;;;6.28;75.26;100723.75;1710001;83;21179;-77
2021/04/12 06:19:22;;;;;;;23.42;11.90;;;;;;;6.26;75.27;100732.30;1711073;82;21152;-77
2021/04/12 06:22:12;;;;;;;24.10;14.35;;;;;;;6.26;75.29;100744.73;1710517;83;21664;-77
2021/04/12 06:25:00;;;;;;;;;;;;;;;6.31;75.30;100745.99;1664733;83;21152;-77
2021/04/12 06:27:42;;;;;;;15.48;11.33;;;;;;;6.33;75.29;100760.44;1711045;82;21401;-77
2021/04/12 06:30:40;;;;;;;20.70;13.85;;;;;;;6.27;75.29;100764.92;1711056;83;21132;-77
2021/04/12 06:33:23;;;;;;;29.87;20.02;;;;;;;6.21;75.31;100772.92;1733632;82;21144;-77
2021/04/12 06:36:10;;;;;;;27.85;18.80;;;;;;;6.17;75.36;100777.28;1703612;82;21175;-77
2021/04/12 06:39:06;;;;;;;77.80;43.85;;;;;;;6.16;75.39;100773.80;1740485;82;21168;-76
2021/04/12 06:42:01;;;;;;;15.78;12.00;;;;;;;6.13;75.43;100782.48;1735439;81;21202;-76
2021/04/12 06:45:15;;;;;;;16.15;11.00;;;;;;;6.11;75.48;100774.70;1720166;82;21164;-77
2021/04/12 06:48:19;;;;;;;20.15;14.30;;;;;;;6.09;75.58;100779.78;1740369;82;21129;-76
2021/04/12 06:51:14;;;;;;;17.70;12.40;;;;;;;6.02;75.65;100780.28;1740612;82;21168;-76
2021/04/12 06:54:36;;;;;;;48.08;24.82;;;;;;;6.06;75.73;100791.45;1740648;81;21112;-76
2021/04/12 06:57:26;;;;;;;27.67;15.95;;;;;;;6.07;75.79;100799.75;1731188;81;21205;-76
2021/04/12 07:00:32;;;;;;;34.40;20.35;;;;;;;6.04;75.83;100801.34;1724981;82;28788;-76
2021/04/12 07:03:37;;;;;;;34.40;15.83;;;;;;;6.04;75.84;100802.67;1734514;82;21128;-76
2021/04/12 07:06:18;;;;;;;31.55;17.20;;;;;;;6.05;75.88;100803.03;1732464;81;21708;-76
2021/04/12 07:09:38;;;;;;;10.55;8.90;;;;;;;6.01;75.92;100809.07;1722723;82;21096;-76
2021/04/12 07:12:19;;;;;;;12.50;8.20;;;;;;;6.03;75.95;100822.16;1721231;81;21196;-77
2021/04/12 07:15:05;;;;;;;29.55;14.63;;;;;;;6.04;75.98;100815.91;1717988;82;21231;-76
2021/04/12 07:17:48;;;;;;;17.17;8.15;;;;;;;6.02;75.98;100822.64;1721987;82;21216;-77
2021/04/12 07:20:38;;;;;;;15.88;8.40;;;;;;;6.05;75.98;100825.53;1722184;82;21147;-76
2021/04/12 07:23:13;;;;;;;11.03;8.78;;;;;;;6.05;75.93;100828.66;1710023;82;21235;-76
2021/04/12 07:25:54;;;;;;;19.23;8.93;;;;;;;6.02;75.92;100829.73;1715055;82;22116;-76
2021/04/12 07:28:44;;;;;;;15.32;9.55;;;;;;;6.00;75.89;100836.50;1738206;82;21179;-75
2021/04/12 07:31:28;;;;;;;9.75;6.58;;;;;;;5.98;75.83;100833.64;1726741;81;21196;-75
2021/04/12 07:34:36;;;;;;;19.48;11.12;;;;;;;5.96;75.79;100838.20;1710149;82;21181;-75
2021/04/12 07:37:23;;;;;;;10.50;6.60;;;;;;;5.98;75.73;100845.55;1721186;82;21155;-75
2021/04/12 07:40:20;;;;;;;20.23;9.90;;;;;;;5.99;75.67;100848.05;1748281;81;21214;-75
2021/04/12 07:43:26;;;;;;;10.88;6.22;;;;;;;5.97;75.61;100856.63;1683318;82;21613;-74
2021/04/12 07:46:16;;;;;;;16.32;9.20;;;;;;;5.96;75.48;100863.35;1710126;82;21585;-75
2021/04/12 07:49:13;;;;;;;13.48;8.15;;;;;;;5.93;75.37;100872.40;1726729;82;21219;-75
2021/04/12 07:52:45;;;;;;;23.40;11.48;;;;;;;5.99;75.24;100875.00;1885446;76;22833;-75
2021/04/12 07:55:54;;;;;;;11.08;6.65;;;;;;;5.93;75.15;100889.61;1848588;76;21187;-75
2021/04/12 07:58:56;;;;;;;13.60;7.00;;;;;;;5.91;75.05;100890.71;1855794;76;21968;-76
2021/04/12 08:01:40;;;;;;;24.43;10.18;;;;;;;5.87;74.95;100894.58;1854887;77;21059;-76
2021/04/12 08:04:18;;;;;;;12.95;6.60;;;;;;;5.89;74.89;100908.51;1833315;76;21151;-76
2021/04/12 08:07:23;;;;;;;11.05;6.97;;;;;;;5.89;74.83;100909.35;1825045;78;21135;-76
2021/04/12 08:10:24;;;;;;;11.50;7.85;;;;;;;5.92;74.75;100912.22;1825962;77;21148;-75
2021/04/12 08:13:34;;;;;;;17.35;8.95;;;;;;;5.91;74.71;100919.83;1828199;77;21207;-76
2021/04/12 08:16:41;;;;;;;17.67;9.20;;;;;;;5.90;74.66;100918.14;1838300;76;21691;-76
2021/04/12 08:19:16;;;;;;;19.92;11.05;;;;;;;5.85;74.59;100922.92;1797612;79;21388;-76
2021/04/12 08:22:00;;;;;;;13.75;8.55;;;;;;;5.69;74.58;100936.59;1810866;79;21195;-76
2021/04/12 08:24:56;;;;;;;17.73;9.03;;;;;;;5.59;74.65;100945.41;1808420;79;21177;-76
2021/04/12 08:28:01;;;;;;;14.58;8.40;;;;;;;5.49;74.69;100942.16;1776577;80;21191;-77
2021/04/12 08:31:25;;;;;;;21.33;11.35;;;;;;;5.47;74.76;100937.97;1715433;82;21175;-77
2021/04/12 08:34:38;;;;;;;28.52;16.30;;;;;;;5.48;74.83;100944.48;1752404;81;21632;-76
2021/04/12 08:37:16;;;;;;;27.82;14.85;;;;;;;5.45;74.88;100944.69;1757735;81;21703;-76
2021/04/12 08:40:11;;;;;;;25.27;13.22;;;;;;;5.46;74.95;100949.03;1759613;81;21447;-77
2021/04/12 08:43:11;;;;;;;28.40;14.65;;;;;;;5.40;75.03;100962.75;1739057;81;21182;-75
2021/04/12 08:46:15;;;;;;;24.87;13.30;;;;;;;5.31;75.10;100971.41;1763441;81;21186;-77
2021/04/12 08:49:19;;;;;;;18.75;9.15;;;;;;;5.24;75.19;100975.50;1743198;81;21164;-77
2021/04/12 08:52:29;;;;;;;15.10;7.35;;;;;;;5.23;75.25;100977.81;1757790;81;21684;-78
2021/04/12 08:55:40;;;;;;;6.75;4.90;;;;;;;5.25;75.33;100984.28;1735483;81;21148;-78
2021/04/12 08:58:30;;;;;;;10.98;6.75;;;;;;;5.19;75.42;100979.48;1735925;82;22094;-78
2021/04/12 09:01:27;;;;;;;35.25;15.08;;;;;;;5.12;75.46;100998.11;1758601;81;21152;-78
2021/04/12 09:04:38;;;;;;;12.03;7.05;;;;;;;5.06;75.55;101003.41;1779347;80;21176;-78
2021/04/12 09:07:43;;;;;;;34.33;14.55;;;;;;;4.92;75.58;101012.42;1749484;81;21199;-78
2021/04/12 09:10:45;;;;;;;79.90;32.70;;;;;;;4.85;75.64;101026.22;1751012;81;21178;-78
2021/04/12 09:13:51;;;;;;;67.58;32.05;;;;;;;4.82;75.62;101025.14;1722954;83;21820;-78
2021/04/12 09:16:28;;;;;;;39.95;19.50;;;;;;;4.69;75.63;101037.58;1745662;80;21203;-78
2021/04/12 09:19:13;;;;;;;24.57;12.37;;;;;;;4.65;75.63;101041.41;1738747;81;21588;-77
2021/04/12 09:22:04;;;;;;;26.87;13.58;;;;;;;4.58;75.63;101036.22;1755435;81;21188;-77
2021/04/12 09:25:00;;;;;;;20.05;11.00;;;;;;;4.58;75.64;101033.58;1740311;81;21589;-77
2021/04/12 09:27:58;;;;;;;19.73;10.00;;;;;;;4.62;75.66;101041.17;1743502;81;21245;-77
2021/04/12 09:30:44;;;;;;;26.93;15.58;;;;;;;4.64;75.67;101051.16;1751825;81;21566;-77
2021/04/12 09:33:58;;;;;;;22.60;11.80;;;;;;;4.60;75.68;101054.14;1764018;81;21190;-77
2021/04/12 09:36:59;;;;;;;26.87;12.47;;;;;;;4.51;75.71;101055.18;1759546;81;21151;-77
2021/04/12 09:40:06;;;;;;;18.65;12.28;;;;;;;4.50;75.76;101061.41;1765862;81;21144;-77
2021/04/12 09:43:05;;;;;;;32.60;17.40;;;;;;;4.50;75.78;101068.02;1754066;81;21197;-76
2021/04/12 09:45:55;;;;;;;34.60;18.10;;;;;;;4.45;75.84;101071.49;1735508;81;21137;-77
2021/04/12 09:48:25;;;;;;;;;;;;;;;4.42;75.90;101071.73;1745979;81;21194;-77
2021/04/12 09:51:38;;;;;;;12.63;9.38;;;;;;;4.49;75.96;101074.75;1762343;81;20280;-76
2021/04/12 09:54:46;;;;;;;14.28;10.78;;;;;;;4.48;76.00;101075.22;1757449;81;21580;-77
2021/04/12 09:57:57;;;;;;;20.08;11.25;;;;;;;4.47;76.04;101087.20;1735678;82;22196;-77
2021/04/12 10:00:32;;;;;;;20.92;12.63;;;;;;;4.40;76.10;101084.19;1750605;81;21215;-77
2021/04/12 10:03:33;;;;;;;13.55;9.25;;;;;;;4.42;76.12;101094.17;1761786;81;21195;-77
2021/04/12 10:06:48;;;;;;;18.75;12.05;;;;;;;4.44;76.12;101098.84;1739291;81;21176;-77
2021/04/12 10:09:54;;;;;;;14.58;10.28;;;;;;;4.42;76.14;101091.53;1758421;81;21222;-76
2021/04/12 10:13:00;;;;;;;12.53;8.73;;;;;;;4.49;76.12;101099.36;1763200;81;21276;-77
2021/04/12 10:15:41;;;;;;;17.32;9.63;;;;;;;4.51;76.15;101092.16;1735162;82;21636;-77
2021/04/12 10:18:35;;;;;;;32.90;16.82;;;;;;;4.56;76.15;101098.90;1735016;82;21302;-77
2021/04/12 10:21:23;;;;;;;66.92;30.23;;;;;;;4.68;76.15;101097.48;1754629;81;21184;-77
2021/04/12 10:24:17;;;;;;;56.92;26.70;;;;;;;4.82;76.14;101103.08;1757831;81;21164;-76
2021/04/12 10:26:47;;;;;;;29.82;15.75;;;;;;;4.91;76.13;101096.61;1752607;81;21978;-77
2021/04/12 10:29:22;;;;;;;13.30;9.43;;;;;;;4.97;76.15;101093.97;1742849;81;21178;-76
2021/04/12 10:31:54;;;;;;;17.10;11.30;;;;;;;4.95;76.18;101099.87;1764415;81;21151;-76
2021/04/12 10:34:29;;;;;;;26.97;15.30;;;;;;;4.93;76.20;101097.80;1749859;79;21152;-77
2021/04/12 10:37:26;;;;;;;34.23;23.38;;;;;;;4.96;76.22;101105.52;1757763;81;21597;-77
2021/04/12 10:40:04;;;;;;;25.80;14.38;;;;;;;4.92;76.22;101100.11;1765893;81;21307;-75
2021/04/12 10:42:56;;;;;;;16.32;11.95;;;;;;;4.86;76.26;101101.87;1737589;81;21441;-75
2021/04/12 10:45:31;;;;;;;24.80;14.95;;;;;;;4.84;76.24;101101.16;1735722;82;21151;-76
2021/04/12 10:48:02;;;;;;;13.10;8.83;;;;;;;4.86;76.23;101108.47;1735607;82;21135;-76
2021/04/12 10:50:55;;;;;;;14.60;8.90;;;;;;;4.93;76.21;101099.97;1735950;82;21128;-75
2021/04/12 10:53:56;;;;;;;10.43;8.55;;;;;;;4.96;76.18;101108.17;1731132;82;21165;-76
2021/04/12 10:56:31;;;;;;;15.32;9.88;;;;;;;4.96;76.20;101104.20;1731505;81;21620;-76
2021/04/12 10:59:26;;;;;;;15.60;11.35;;;;;;;5.00;76.18;101100.34;1731315;82;21152;-76
2021/04/12 11:02:21;;;;;;;33.55;21.48;;;;;;;5.01;76.19;101098.07;1731322;82;21873;-76
2021/04/12 11:04:55;;;;;;;24.20;15.25;;;;;;;4.97;76.18;101098.78;1706477;82;21158;-75
2021/04/12 11:07:33;;;;;;;15.95;11.30;;;;;;;5.02;76.17;101091.83;1731258;81;21203;-76
2021/04/12 11:10:46;;;;;;;13.58;10.32;;;;;;;4.95;76.16;101086.17;1730976;82;21105;-75
2021/04/12 11:13:36;;;;;;;17.30;10.90;;;;;;;4.86;76.17;101089.50;1730875;82;21149;-76
2021/04/12 11:16:44;;;;;;;24.92;13.30;;;;;;;4.79;76.17;101101.97;1731371;82;21562;-76
2021/04/12 11:19:52;;;;;;;11.80;9.65;;;;;;;4.76;76.16;101100.88;1731385;82;21120;-76
2021/04/12 11:22:55;;;;;;;14.90;9.95;;;;;;;4.75;76.14;101112.43;1731387;82;21594;-76
2021/04/12 11:25:59;;;;;;;22.20;12.45;;;;;;;4.87;76.17;101107.52;1815879;77;22835;-77
2021/04/12 11:28:53;;;;;;;14.23;9.13;;;;;;;4.86;76.13;101115.08;1759621;79;21220;-76
2021/04/12 11:31:39;;;;;;;18.75;11.10;;;;;;;4.86;76.16;101121.69;1776990;80;21963;-76
2021/04/12 11:34:38;;;;;;;51.00;23.90;;;;;;;4.76;76.13;101127.30;1787805;80;21179;-76
2021/04/12 11:37:37;;;;;;;20.72;12.18;;;;;;;4.62;76.11;101132.30;1788369;80;21155;-76
2021/04/12 11:40:23;;;;;;;16.52;11.30;;;;;;;4.47;76.09;101132.09;1788045;80;21128;-76
2021/04/12 11:43:00;;;;;;;11.78;9.43;;;;;;;4.42;76.10;101137.74;1784785;80;21151;-76
2021/04/12 11:45:35;;;;;;;20.90;11.50;;;;;;;4.38;76.09;101148.16;1764729;80;21169;-76
2021/04/12 11:48:19;;;;;;;17.27;9.68;;;;;;;4.32;76.10;101151.26;1756263;81;21603;-76
2021/04/12 11:51:14;;;;;;;30.20;14.58;;;;;;;4.26;76.15;101151.67;1815889;77;22647;-76
2021/04/12 11:53:46;;;;;;;26.57;15.53;;;;;;;4.16;76.17;101167.81;1768301;80;21155;-76
2021/04/12 11:56:30;;;;;;;36.20;17.37;;;;;;;4.08;76.22;101178.10;1782768;78;21617;-76
2021/04/12 11:59:14;;;;;;;36.90;17.02;;;;;;;4.08;76.27;101186.02;1781877;78;21067;-76
2021/04/12 12:01:52;;;;;;;39.13;21.95;;;;;;;4.02;76.29;101193.88;1761873;80;21107;-77
2021/04/12 12:04:57;;;;;;;32.85;18.52;;;;;;;4.02;76.34;101208.39;1788195;80;21028;-76
2021/04/12 12:07:48;;;;;;;16.12;9.45;;;;;;;4.04;76.40;101216.22;1787493;80;21135;-76
2021/04/12 12:10:54;;;;;;;28.85;15.93;;;;;;;4.02;76.43;101223.37;1787267;80;21138;-76
2021/04/12 12:13:53;;;;;;;19.32;10.28;;;;;;;3.93;76.48;101231.95;1756654;80;21132;-77
2021/04/12 12:16:36;;;;;;;10.05;6.90;;;;;;;3.80;76.59;101228.48;1746575;81;21637;-77
2021/04/12 12:19:17;;;;;;;21.87;10.10;;;;;;;3.72;76.66;101222.89;1726200;82;21160;-77
2021/04/12 12:21:58;;;;;;;34.33;16.05;;;;;;;3.60;76.72;101221.93;1726019;81;21621;-76
2021/04/12 12:24:50;;;;;;;22.20;10.95;;;;;;;3.51;76.77;101226.52;1723405;81;21209;-76
2021/04/12 12:27:22;;;;;;;15.28;9.08;;;;;;;3.48;76.83;101226.23;1726688;83;21191;-76
2021/04/12 12:29:54;;;;;;;26.25;13.22;;;;;;;3.48;76.91;101230.19;1727035;82;21152;-76
2021/04/12 12:32:50;;;;;;;33.88;16.37;;;;;;;3.42;76.94;101233.25;1709137;83;21077;-76
2021/04/12 12:35:43;;;;;;;13.95;7.50;;;;;;;3.41;76.98;101232.06;1726776;83;21129;-77
2021/04/12 12:38:24;;;;;;;9.40;5.42;;;;;;;3.41;77.09;101244.73;1726820;82;21530;-77
2021/04/12 12:40:58;;;;;;;11.15;6.60;;;;;;;3.42;77.15;101245.12;1724619;82;21088;-77
2021/04/12 12:43:32;;;;;;;8.98;5.87;;;;;;;3.41;77.22;101240.78;1725833;82;21195;-77
2021/04/12 12:46:23;;;;;;;9.23;5.65;;;;;;;3.41;77.27;101253.97;1726749;82;21180;-76
2021/04/12 12:49:26;;;;;;;6.50;3.75;;;;;;;3.37;77.33;101266.16;1708188;82;21164;-76
2021/04/12 12:51:56;;;;;;;6.37;4.37;;;;;;;3.26;77.39;101273.47;1739490;81;21205;-77
2021/04/12 12:54:45;;;;;;;12.78;7.17;;;;;;;3.19;77.48;101273.97;1759864;81;21500;-77
2021/04/12 12:57:20;;;;;;;10.13;5.20;;;;;;;3.19;77.54;101277.92;1732284;81;21107;-77
2021/04/12 12:59:50;;;;;;;9.20;5.83;;;;;;;3.23;77.57;101277.63;1759878;81;21135;-77
2021/04/12 13:02:32;;;;;;;8.35;5.05;;;;;;;3.29;77.60;101268.45;1759353;81;21152;-77
2021/04/12 13:05:24;;;;;;;9.30;6.30;;;;;;;3.30;77.64;101279.38;1759117;81;21437;-76
2021/04/12 13:07:55;;;;;;;8.35;5.78;;;;;;;3.33;77.67;101286.61;1759245;81;21577;-76
2021/04/12 13:10:27;;;;;;;13.98;7.00;;;;;;;3.31;77.72;101289.80;1757313;81;21115;-76
2021/04/12 13:12:53;;;;;;;16.20;7.83;;;;;;;3.33;77.74;101293.67;1759395;80;21167;-76
2021/04/12 13:15:33;;;;;;;14.23;7.53;;;;;;;3.37;77.77;101294.69;1759386;80;21536;-76
2021/04/12 13:18:10;;;;;;;13.65;7.12;;;;;;;3.44;77.81;101288.53;1733854;81;21411;-76
2021/04/12 13:20:45;;;;;;;30.97;13.78;;;;;;;3.44;77.84;101298.61;1755283;81;21624;-77
2021/04/12 13:23:23;;;;;;;25.75;13.28;;;;;;;3.49;77.89;101297.81;1755953;81;21136;-77